Bengaluru International Airport
VOBL : now visible

Airfield :











YOU CAN JOIN US ON...

 
LOGIN :

Register | Disclaimer

   EN    FR    IT 

 









Legend :    VFR   Marginal VFR   IFR   Intensive IFR   Very Intensive IFR
Visi :
Ceiling :
>= 8 km
>= 3000ft
5 to 8 km
1000 to 3000 ft
1500m to 5 km
500 to 1000 ft
800 to 1500m
200 to 500 ft
< 800m
< 200 ft
Symbols :   Thunderstorms  Fog  Heavy snow  Heavy precipitations  Wind > 20 kt







- Airport Elevation : 0 ft
- IATA code : BLR


VOBL - Bengaluru International

CURRENT METAR :
  • 172200Z 17004KT 150V220 6000 FEW015 21/11 Q1015 TEMPO 4000 BR

EXPIRED METARs :
  • 172130Z 15005KT 6000 FEW015 21/11 Q1015 NOSIG
  • 172100Z VRB03KT 6000 FEW015 20/10 Q1015 NOSIG
  • 172030Z VRB02KT 6000 FEW015 21/10 Q1015 TEMPO 4000 BR
  • 172000Z 00000KT 6000 FEW015 20/11 Q1015 TEMPO 4000 BR
  • 171930Z VRB03KT 6000 FEW015 22/09 Q1016 TEMPO 4000 BR

TAF TAF VOBL
Valid from the 17 at 21:00 until the 18 at 06:00 UTC


172000Z 1721/1806 29010KT 6000 FEW015
BECMG 1721/1722 VRB02KT 4000 BR FEW010
TEMPO 1800/1803 2000 BR SCT010
BECMG 1803/1804 14010KT 6000 SCT015
VOMF FIR / Asia



MET'MAP, your aeronautical weather chart ! - Copyright ORBIFLY December 2007 - Disclaimer

ORBIFLY MET'MAP TEAM :

Programming & Development : Alexandra Zaïnal
Concept & Development : Baudouin d'Aumeries
Co-Development & Prog : Marc-Olivier Méhu
Technical & hardware support : Manuel Goepfert

Contact : metmap@orbifly.com




SOURCES & CREDITS :

   NOAA       Earth
Advisory